Alix, Arkansas
Current Conditions -  °F | °C
As of 8:04 PM on Thursday 18 Dec 2014 (Local Time) from KFSM Reporting Station
Overcast Overcast  
Wind Chill: 42°   Ceiling: 1400
Heat Index: 42°   Visibility: 10mi
Dew Point: 38°   Wind: 0mph
Humidity: 85%   Direction: NA
Pressure: 30.22"   Gusts: NA
Location:  35.43°N, 93.73°W
Report Text: KFSM 190204Z 00000KT 10SM BKN014 OVC024 06/03 A3022 RMK AO2 T00560033
Loading
Personal Weather Stations






























Interactive Weather Map New forecast layout! Learn more

10-Day Weather Forecast

Advertisements
Track Severe Weather on mobile